Time;durP1;ratioP1;P1;durP2;ratioP2;P2;SDS_P1;SDS_P2;PMS_P1;PMS_P2;Temp;Humidity;BMP_temperature;BMP_pressure;BME280_temperature;BME280_humidity;BME280_pressure;Samples;Min_cycle;Max_cycle;Signal;HPM_P1;HPM_P2
2023/01/28 00:00:17;;;;;;;;;;;20.80;59.50;;;;;;1544420;75;670;-69
2023/01/28 00:02:19;;;;;;;;;;;20.80;59.40;;;;;;1548886;75;744;-70
2023/01/28 00:04:21;;;;;;;;;;;20.80;59.40;;;;;;1550540;75;1570;-70
2023/01/28 00:06:23;;;;;;;;;;;20.80;59.30;;;;;;1542447;75;1148;-69
2023/01/28 00:08:25;;;;;;;;;;;20.80;59.30;;;;;;1547558;75;719;-69
2023/01/28 00:10:27;;;;;;;;;;;20.80;59.40;;;;;;1541644;75;687;-69
2023/01/28 00:12:28;;;;;;;;;;;20.80;59.40;;;;;;1550792;75;690;-69
2023/01/28 00:14:30;;;;;;;;;;;20.80;59.40;;;;;;1543706;75;679;-69
2023/01/28 00:16:32;;;;;;;;;;;20.80;59.40;;;;;;1551027;74;1949;-69
2023/01/28 00:18:34;;;;;;;;;;;20.80;59.40;;;;;;1546935;75;1594;-71
2023/01/28 00:20:36;;;;;;;;;;;20.80;59.40;;;;;;1543330;75;825;-69
2023/01/28 00:22:38;;;;;;;;;;;20.80;59.40;;;;;;1541568;75;703;-68
2023/01/28 00:24:40;;;;;;;;;;;20.80;59.40;;;;;;1540194;75;671;-70
2023/01/28 00:26:42;;;;;;;;;;;20.80;59.40;;;;;;1548896;72;2086;-65
2023/01/28 00:28:46;;;;;;;;;;;20.80;59.40;;;;;;1566170;74;600;-66
2023/01/28 00:30:48;;;;;;;;;;;20.80;59.40;;;;;;1558846;74;682;-67
2023/01/28 00:32:50;;;;;;;;;;;20.80;59.30;;;;;;1560606;74;1518;-67
2023/01/28 00:34:52;;;;;;;;;;;20.80;59.30;;;;;;1558300;74;702;-67
2023/01/28 00:36:58;;;;;;;;;;;20.80;59.30;;;;;;1561797;74;1943;-67
2023/01/28 00:38:58;;;;;;;;;;;20.80;59.20;;;;;;1538710;76;1113;-66
2023/01/28 00:41:07;;;;;;;;;;;20.80;59.20;;;;;;1539449;76;667;-68
2023/01/28 00:43:09;;;;;;;;;;;20.80;59.20;;;;;;1533659;76;688;-67
2023/01/28 00:45:11;;;;;;;;;;;20.80;59.20;;;;;;1539893;76;714;-69
2023/01/28 00:47:13;;;;;;;;;;;20.80;59.20;;;;;;1539614;76;1617;-70
2023/01/28 00:49:14;;;;;;;;;;;20.80;59.10;;;;;;1537567;76;663;-68
2023/01/28 00:51:16;;;;;;;;;;;20.80;59.10;;;;;;1540815;76;631;-68
2023/01/28 00:53:18;;;;;;;;;;;20.80;59.10;;;;;;1539855;76;720;-67
2023/01/28 00:55:20;;;;;;;;;;;20.80;59.10;;;;;;1538068;76;1936;-67
2023/01/28 00:57:22;;;;;;;;;;;20.80;59.00;;;;;;1538434;76;1107;-68
2023/01/28 00:59:24;;;;;;;;;;;20.80;59.00;;;;;;1534985;76;1457;-69
2023/01/28 01:01:26;;;;;;;;;;;20.80;59.00;;;;;;1528710;76;691;-68
2023/01/28 01:03:28;;;;;;;;;;;20.80;59.00;;;;;;1522133;76;671;-68
2023/01/28 01:05:32;;;;;;;;;;;20.80;59.00;;;;;;1529784;76;676;-70
2023/01/28 01:07:42;;;;;;;;;;;20.80;59.20;;;;;;1550872;76;1174;-68
2023/01/28 01:09:44;;;;;;;;;;;20.80;59.20;;;;;;1539372;76;592;-66
2023/01/28 01:11:46;;;;;;;;;;;20.70;59.10;;;;;;1539882;76;662;-66
2023/01/28 01:13:51;;;;;;;;;;;20.80;59.20;;;;;;1539190;76;1577;-66
2023/01/28 01:16:10;;;;;;;;;;;20.80;59.20;;;;;;1537219;76;1939;-66
2023/01/28 01:18:12;;;;;;;;;;;20.80;59.10;;;;;;1530771;76;1085;-65
2023/01/28 01:20:15;;;;;;;;;;;20.80;59.20;;;;;;1539358;76;653;-66
2023/01/28 01:22:17;;;;;;;;;;;20.70;59.10;;;;;;1545495;76;687;-67
2023/01/28 01:24:18;;;;;;;;;;;20.70;59.00;;;;;;1538181;76;662;-67
2023/01/28 01:26:20;;;;;;;;;;;20.70;59.20;;;;;;1542080;76;1145;-66
2023/01/28 01:28:22;;;;;;;;;;;20.70;59.10;;;;;;1537908;76;1452;-67
2023/01/28 01:30:24;;;;;;;;;;;20.80;59.00;;;;;;1539648;76;615;-68
2023/01/28 01:32:29;;;;;;;;;;;20.80;58.90;;;;;;1535486;76;660;-66
2023/01/28 01:34:31;;;;;;;;;;;20.80;58.90;;;;;;1539228;76;806;-66
2023/01/28 01:36:33;;;;;;;;;;;20.80;58.90;;;;;;1530602;76;1944;-65
2023/01/28 01:38:35;;;;;;;;;;;20.80;58.90;;;;;;1536225;76;604;-65
2023/01/28 01:40:37;;;;;;;;;;;20.80;58.90;;;;;;1539085;76;707;-66
2023/01/28 01:42:39;;;;;;;;;;;20.70;58.80;;;;;;1544075;76;1461;-67
2023/01/28 01:44:59;;;;;;;;;;;20.80;58.80;;;;;;1535292;76;723;-67
2023/01/28 01:47:01;;;;;;;;;;;20.80;58.90;;;;;;1530697;76;1111;-66
2023/01/28 01:49:04;;;;;;;;;;;20.80;58.90;;;;;;1527610;76;651;-65
2023/01/28 01:51:08;;;;;;;;;;;20.80;58.90;;;;;;1537919;76;967;-65
2023/01/28 01:53:11;;;;;;;;;;;20.80;58.90;;;;;;1539747;76;676;-67
2023/01/28 01:55:14;;;;;;;;;;;20.70;59.00;;;;;;1533062;76;718;-66
2023/01/28 01:57:17;;;;;;;;;;;20.70;59.00;;;;;;1531619;76;1917;-69
2023/01/28 01:59:20;;;;;;;;;;;20.70;59.10;;;;;;1537730;76;626;-70
2023/01/28 02:01:23;;;;;;;;;;;20.60;60.10;;;;;;1542380;76;676;-68
2023/01/28 02:03:29;;;;;;;;;;;20.50;60.10;;;;;;1542651;76;682;-68
2023/01/28 02:05:31;;;;;;;;;;;20.60;60.10;;;;;;1536550;76;960;-66
2023/01/28 02:07:33;;;;;;;;;;;20.60;59.90;;;;;;1543568;76;1159;-68
2023/01/28 02:09:35;;;;;;;;;;;20.70;59.80;;;;;;1541672;76;680;-66
2023/01/28 02:11:37;;;;;;;;;;;20.70;59.60;;;;;;1540401;76;1640;-66
2023/01/28 02:13:40;;;;;;;;;;;20.70;59.60;;;;;;1535327;76;678;-66
2023/01/28 02:15:42;;;;;;;;;;;20.70;59.50;;;;;;1538273;76;1932;-65
2023/01/28 02:17:44;;;;;;;;;;;20.70;59.40;;;;;;1539544;76;1111;-66
2023/01/28 02:20:02;;;;;;;;;;;20.80;59.50;;;;;;1541730;76;697;-67
2023/01/28 02:22:11;;;;;;;;;;;20.70;59.40;;;;;;1537509;76;637;-68
2023/01/28 02:24:21;;;;;;;;;;;20.70;59.40;;;;;;1539312;76;1432;-66
2023/01/28 02:26:27;;;;;;;;;;;20.70;59.40;;;;;;1543096;76;1149;-67
2023/01/28 02:28:34;;;;;;;;;;;20.70;59.40;;;;;;1539552;75;813;-66
2023/01/28 02:30:42;;;;;;;;;;;20.70;59.40;;;;;;1541244;75;671;-67
2023/01/28 02:32:45;;;;;;;;;;;20.70;59.40;;;;;;1537507;75;709;-68
2023/01/28 02:34:51;;;;;;;;;;;20.70;59.40;;;;;;1540876;75;1564;-67
2023/01/28 02:36:54;;;;;;;;;;;20.70;59.40;;;;;;1542879;75;1971;-67
2023/01/28 02:38:57;;;;;;;;;;;20.80;59.40;;;;;;1542841;75;1473;-67
2023/01/28 02:41:05;;;;;;;;;;;20.70;59.30;;;;;;1540179;75;683;-67
2023/01/28 02:43:07;;;;;;;;;;;20.70;59.80;;;;;;1541333;75;634;-68
2023/01/28 02:45:13;;;;;;;;;;;20.70;59.50;;;;;;1541293;75;660;-67
2023/01/28 02:49:42;;;;;;;;;;;20.70;59.50;;;;;;1539498;75;1714;-68
2023/01/28 02:51:58;;;;;;;;;;;20.70;59.40;;;;;;1540298;75;543;-71
2023/01/28 02:54:01;;;;;;;;;;;20.70;59.40;;;;;;1536802;75;1100;-67
2023/01/28 02:56:08;;;;;;;;;;;20.70;59.40;;;;;;1540266;75;1936;-66
2023/01/28 02:58:14;;;;;;;;;;;20.70;59.50;;;;;;1540592;75;1107;-65
2023/01/28 03:00:18;;;;;;;;;;;20.70;59.50;;;;;;1539354;75;665;-64
2023/01/28 03:02:21;;;;;;;;;;;20.70;59.50;;;;;;1543798;75;689;-65
2023/01/28 03:04:31;;;;;;;;;;;20.60;59.40;;;;;;1541391;75;646;-66
2023/01/28 03:06:37;;;;;;;;;;;20.70;59.50;;;;;;1541650;75;1470;-64
2023/01/28 03:36:59;;;;;;;;;;;20.60;59.70;;;;;;1538785;75;1920;-69
2023/01/28 03:39:01;;;;;;;;;;;20.60;59.70;;;;;;1538463;75;683;-69
2023/01/28 03:41:03;;;;;;;;;;;20.60;59.60;;;;;;1538145;75;675;-69
2023/01/28 03:43:05;;;;;;;;;;;20.60;59.60;;;;;;1542989;75;687;-70
2023/01/28 03:45:07;;;;;;;;;;;20.60;59.50;;;;;;1543114;75;716;-70
2023/01/28 03:47:10;;;;;;;;;;;20.70;59.70;;;;;;1534526;76;1158;-68
2023/01/28 03:49:12;;;;;;;;;;;20.60;59.60;;;;;;1534116;76;1481;-68
2023/01/28 03:51:15;;;;;;;;;;;20.60;59.50;;;;;;1538249;76;773;-68
2023/01/28 03:53:17;;;;;;;;;;;20.60;59.50;;;;;;1534699;76;731;-69
2023/01/28 03:55:19;;;;;;;;;;;20.70;59.60;;;;;;1539776;75;679;-67
2023/01/28 03:57:22;;;;;;;;;;;20.60;59.50;;;;;;1536979;76;1925;-68
2023/01/28 03:59:24;;;;;;;;;;;20.60;59.60;;;;;;1535171;76;716;-68
2023/01/28 04:01:26;;;;;;;;;;;20.60;59.60;;;;;;1535199;76;712;-70
2023/01/28 04:03:28;;;;;;;;;;;20.60;59.80;;;;;;1534965;76;1453;-67
2023/01/28 04:05:30;;;;;;;;;;;20.60;59.80;;;;;;1533190;76;690;-67
2023/01/28 04:07:32;;;;;;;;;;;20.50;59.80;;;;;;1536196;76;1119;-68
2023/01/28 04:09:34;;;;;;;;;;;20.50;59.80;;;;;;1531534;76;692;-67
2023/01/28 04:11:36;;;;;;;;;;;20.50;61.00;;;;;;1536038;76;708;-66
2023/01/28 04:13:39;;;;;;;;;;;20.50;60.50;;;;;;1535110;76;659;-66
2023/01/28 04:15:42;;;;;;;;;;;20.50;60.30;;;;;;1535095;76;630;-66
2023/01/28 04:17:44;;;;;;;;;;;20.60;60.20;;;;;;1534263;76;1945;-67
2023/01/28 04:19:46;;;;;;;;;;;20.60;59.80;;;;;;1531781;76;728;-67
2023/01/28 04:21:48;;;;;;;;;;;20.60;59.60;;;;;;1535236;76;743;-67
2023/01/28 04:23:50;;;;;;;;;;;20.70;59.50;;;;;;1531189;76;594;-67
2023/01/28 04:25:52;;;;;;;;;;;20.70;59.40;;;;;;1533669;76;637;-68
2023/01/28 04:27:54;;;;;;;;;;;20.70;59.30;;;;;;1533651;76;1135;-69
2023/01/28 04:29:56;;;;;;;;;;;20.70;59.20;;;;;;1534373;76;779;-67
2023/01/28 04:31:58;;;;;;;;;;;20.70;59.10;;;;;;1532794;76;1446;-68
2023/01/28 04:33:59;;;;;;;;;;;20.70;59.10;;;;;;1547018;75;665;-71
2023/01/28 04:36:01;;;;;;;;;;;20.70;59.10;;;;;;1542521;76;751;-69
2023/01/28 04:38:03;;;;;;;;;;;20.70;59.20;;;;;;1539841;75;1952;-70
2023/01/28 04:40:05;;;;;;;;;;;20.70;59.10;;;;;;1540778;76;754;-69
2023/01/28 04:42:07;;;;;;;;;;;20.60;59.00;;;;;;1539312;75;673;-69
2023/01/28 04:44:09;;;;;;;;;;;20.70;59.00;;;;;;1546799;75;754;-71
2023/01/28 04:46:11;;;;;;;;;;;20.70;59.00;;;;;;1532570;76;1384;-67
2023/01/28 04:48:13;;;;;;;;;;;20.70;59.10;;;;;;1535385;76;1096;-66
2023/01/28 04:50:15;;;;;;;;;;;20.70;59.00;;;;;;1531008;76;668;-67
2023/01/28 04:52:17;;;;;;;;;;;20.70;59.00;;;;;;1529779;76;698;-68
2023/01/28 04:54:19;;;;;;;;;;;20.70;59.00;;;;;;1542148;75;606;-66
2023/01/28 04:56:21;;;;;;;;;;;20.70;59.00;;;;;;1535325;76;1107;-67
2023/01/28 04:58:23;;;;;;;;;;;20.70;59.00;;;;;;1535915;76;1917;-67
2023/01/28 05:00:25;;;;;;;;;;;20.70;58.90;;;;;;1545485;76;1579;-67
2023/01/28 05:02:27;;;;;;;;;;;20.70;58.90;;;;;;1543158;76;709;-69
2023/01/28 05:04:28;;;;;;;;;;;20.70;58.90;;;;;;1540151;76;644;-68
2023/01/28 05:06:31;;;;;;;;;;;20.70;59.00;;;;;;1536573;76;1237;-67
2023/01/28 05:08:33;;;;;;;;;;;20.70;59.00;;;;;;1537241;76;628;-67
2023/01/28 05:10:35;;;;;;;;;;;20.70;59.00;;;;;;1538728;76;696;-67
2023/01/28 05:12:36;;;;;;;;;;;20.70;59.10;;;;;;1537392;76;1421;-68
2023/01/28 05:14:38;;;;;;;;;;;20.70;59.10;;;;;;1541950;75;692;-67
2023/01/28 05:16:40;;;;;;;;;;;20.70;59.00;;;;;;1551258;75;1951;-68
2023/01/28 05:18:42;;;;;;;;;;;20.70;59.10;;;;;;1553887;75;613;-68
2023/01/28 05:20:44;;;;;;;;;;;20.70;59.00;;;;;;1533732;76;720;-66
2023/01/28 05:22:46;;;;;;;;;;;20.70;59.00;;;;;;1524774;76;715;-66
2023/01/28 05:24:48;;;;;;;;;;;20.70;59.00;;;;;;1544713;76;657;-67
2023/01/28 05:26:49;;;;;;;;;;;20.70;59.00;;;;;;1538554;76;1447;-66
2023/01/28 05:28:51;;;;;;;;;;;20.70;58.90;;;;;;1532854;76;720;-67
2023/01/28 05:30:53;;;;;;;;;;;20.70;59.00;;;;;;1531349;76;779;-67
2023/01/28 05:32:55;;;;;;;;;;;20.70;59.00;;;;;;1539348;76;692;-68
2023/01/28 05:34:57;;;;;;;;;;;20.70;59.00;;;;;;1536895;76;612;-69
2023/01/28 05:36:59;;;;;;;;;;;20.70;59.00;;;;;;1536040;76;1936;-72
2023/01/28 05:39:01;;;;;;;;;;;20.70;59.00;;;;;;1536888;76;661;-67
2023/01/28 05:41:03;;;;;;;;;;;20.70;59.00;;;;;;1536130;76;1492;-67
2023/01/28 05:43:05;;;;;;;;;;;20.70;59.10;;;;;;1545821;76;629;-66
2023/01/28 05:45:07;;;;;;;;;;;20.70;59.00;;;;;;1540662;75;628;-67
2023/01/28 05:47:09;;;;;;;;;;;20.70;59.10;;;;;;1541722;76;1122;-67
2023/01/28 05:49:12;;;;;;;;;;;20.70;59.40;;;;;;1534979;76;691;-67
2023/01/28 05:51:14;;;;;;;;;;;20.70;59.50;;;;;;1536673;76;742;-66
2023/01/28 05:53:16;;;;;;;;;;;20.60;59.50;;;;;;1534932;76;610;-69
2023/01/28 05:55:18;;;;;;;;;;;20.60;59.50;;;;;;1526773;76;1567;-65
2023/01/28 05:57:19;;;;;;;;;;;20.60;59.50;;;;;;1541907;76;1956;-69
2023/01/28 05:59:21;;;;;;;;;;;20.60;59.80;;;;;;1538083;76;858;-70
2023/01/28 06:01:23;;;;;;;;;;;20.50;60.30;;;;;;1538465;76;816;-68
2023/01/28 06:03:25;;;;;;;;;;;20.50;60.20;;;;;;1536686;76;713;-76
2023/01/28 06:05:27;;;;;;;;;;;20.40;60.10;;;;;;1542874;76;685;-72
2023/01/28 06:07:29;;;;;;;;;;;20.40;60.00;;;;;;1539611;76;1201;-69
2023/01/28 06:09:31;;;;;;;;;;;20.50;60.00;;;;;;1534566;76;1460;-69
2023/01/28 06:11:33;;;;;;;;;;;20.50;59.80;;;;;;1534550;76;612;-71
2023/01/28 06:13:35;;;;;;;;;;;20.50;59.70;;;;;;1538482;76;646;-72
2023/01/28 06:15:37;;;;;;;;;;;20.50;59.60;;;;;;1540481;76;668;-72
2023/01/28 06:17:38;;;;;;;;;;;20.60;59.60;;;;;;1538095;76;1940;-67
2023/01/28 06:19:40;;;;;;;;;;;20.50;59.50;;;;;;1537617;76;705;-68
2023/01/28 06:21:42;;;;;;;;;;;20.50;59.40;;;;;;1540064;76;761;-69
2023/01/28 06:23:44;;;;;;;;;;;20.50;59.40;;;;;;1538105;76;1612;-69
2023/01/28 06:25:46;;;;;;;;;;;20.60;59.30;;;;;;1539027;76;654;-69
2023/01/28 06:27:48;;;;;;;;;;;20.50;59.30;;;;;;1519725;74;223565;-60
2023/01/28 06:29:50;;;;;;;;;;;20.50;59.40;;;;;;1459520;80;1179;-64
2023/01/28 06:31:52;;;;;;;;;;;20.50;59.40;;;;;;1455116;80;713;-59
2023/01/28 06:33:54;;;;;;;;;;;20.40;59.30;;;;;;1445578;80;582;-60
2023/01/28 06:35:56;;;;;;;;;;;20.40;59.40;;;;;;1471895;80;723;-60
2023/01/28 06:37:57;;;;;;;;;;;20.40;59.40;;;;;;1454069;80;1945;-60
2023/01/28 06:39:59;;;;;;;;;;;20.40;59.40;;;;;;1459914;80;1179;-60
2023/01/28 06:42:01;;;;;;;;;;;20.40;59.30;;;;;;1453349;80;728;-60
2023/01/28 06:44:03;;;;;;;;;;;20.40;59.40;;;;;;1448695;80;746;-60
2023/01/28 06:46:05;;;;;;;;;;;20.40;59.30;;;;;;1481775;79;761;-59
2023/01/28 06:48:07;;;;;;;;;;;20.40;59.40;;;;;;1485504;78;678;-61
2023/01/28 06:50:09;;;;;;;;;;;20.40;59.30;;;;;;1500492;78;1149;-63
2023/01/28 06:52:11;;;;;;;;;;;20.40;59.30;;;;;;1479342;78;1538;-62
2023/01/28 06:54:13;;;;;;;;;;;20.40;59.40;;;;;;1483274;79;742;-62
2023/01/28 06:56:15;;;;;;;;;;;20.40;59.30;;;;;;1482784;78;724;-62
2023/01/28 06:58:17;;;;;;;;;;;20.40;59.30;;;;;;1487232;78;1942;-62
2023/01/28 07:00:19;;;;;;;;;;;20.40;59.30;;;;;;1457820;79;1151;-62
2023/01/28 07:02:21;;;;;;;;;;;20.40;59.30;;;;;;1433974;80;679;-62
2023/01/28 07:04:23;;;;;;;;;;;20.40;59.30;;;;;;1434690;80;686;-62
2023/01/28 07:06:25;;;;;;;;;;;20.40;59.30;;;;;;1446823;80;1556;-62
2023/01/28 07:08:26;;;;;;;;;;;20.30;59.30;;;;;;1461669;80;665;-62
2023/01/28 07:10:28;;;;;;;;;;;20.40;59.30;;;;;;1467255;80;1143;-62
2023/01/28 07:12:30;;;;;;;;;;;20.40;59.30;;;;;;1495957;79;666;-62
2023/01/28 07:14:32;;;;;;;;;;;20.30;59.20;;;;;;1486365;78;701;-62
2023/01/28 07:16:34;;;;;;;;;;;20.30;59.20;;;;;;1490264;78;735;-62
2023/01/28 07:18:36;;;;;;;;;;;20.40;59.20;;;;;;1487940;79;1930;-62
2023/01/28 07:20:38;;;;;;;;;;;20.40;59.20;;;;;;1482429;78;1244;-62
2023/01/28 07:22:40;;;;;;;;;;;20.40;59.20;;;;;;1487253;79;670;-62
2023/01/28 07:24:42;;;;;;;;;;;20.40;59.10;;;;;;1480816;78;695;-62
2023/01/28 07:26:44;;;;;;;;;;;20.40;59.10;;;;;;1480011;78;733;-62
2023/01/28 07:28:46;;;;;;;;;;;20.50;59.10;;;;;;1452058;80;821;-62
2023/01/28 07:30:49;;;;;;;;;;;20.40;59.00;;;;;;1446237;80;1126;-62
2023/01/28 07:32:57;;;;;;;;;;;20.40;59.00;;;;;;1456678;79;704;-62
2023/01/28 07:34:59;;;;;;;;;;;20.40;59.00;;;;;;1460651;79;1578;-62
2023/01/28 07:37:02;;;;;;;;;;;20.40;59.00;;;;;;1472099;78;959;-62
2023/01/28 07:39:04;;;;;;;;;;;20.40;59.00;;;;;;1476104;78;1923;-62
2023/01/28 07:41:06;;;;;;;;;;;20.40;59.00;;;;;;1449940;80;751;-62
2023/01/28 07:43:08;;;;;;;;;;;20.30;59.00;;;;;;1474616;78;746;-62
2023/01/28 07:45:10;;;;;;;;;;;20.40;59.00;;;;;;1484828;78;719;-62
2023/01/28 07:47:12;;;;;;;;;;;20.40;58.90;;;;;;1485519;78;1588;-62
2023/01/28 07:49:14;;;;;;;;;;;20.40;59.00;;;;;;1481879;78;1151;-62
2023/01/28 07:51:16;;;;;;;;;;;20.40;59.00;;;;;;1488863;78;672;-63
2023/01/28 07:53:19;;;;;;;;;;;20.30;59.00;;;;;;1490053;78;705;-62
2023/01/28 07:55:21;;;;;;;;;;;20.30;59.00;;;;;;1499420;78;779;-62
2023/01/28 07:57:22;;;;;;;;;;;20.40;59.00;;;;;;1495281;78;656;-62
2023/01/28 07:59:24;;;;;;;;;;;20.40;59.00;;;;;;1487067;78;1927;-62
2023/01/28 08:01:26;;;;;;;;;;;20.40;59.00;;;;;;1487240;78;1575;-63
2023/01/28 08:03:28;;;;;;;;;;;20.40;59.00;;;;;;1481922;78;708;-62
2023/01/28 08:05:42;;;;;;;;;;;20.50;59.00;;;;;;1486613;78;682;-61
2023/01/28 08:07:41;;;;;;;;;;;20.40;58.90;;;;;;1480063;78;1445;-62
2023/01/28 08:09:43;;;;;;;;;;;20.40;59.00;;;;;;1489647;78;1130;-62
2023/01/28 08:11:45;;;;;;;;;;;20.40;59.00;;;;;;1476350;78;684;-62
2023/01/28 08:13:47;;;;;;;;;;;20.40;58.90;;;;;;1483632;78;715;-62
2023/01/28 08:15:49;;;;;;;;;;;20.40;58.90;;;;;;1485553;78;1575;-62
2023/01/28 08:17:53;;;;;;;;;;;20.40;58.90;;;;;;1505732;77;1931;-62
2023/01/28 08:19:55;;;;;;;;;;;20.40;58.90;;;;;;1476031;78;1116;-62
2023/01/28 08:21:57;;;;;;;;;;;20.40;59.00;;;;;;1484523;78;676;-62
2023/01/28 08:23:59;;;;;;;;;;;20.40;59.10;;;;;;1480592;78;920;-62
2023/01/28 08:26:01;;;;;;;;;;;20.30;59.50;;;;;;1473981;78;772;-61
2023/01/28 08:28:03;;;;;;;;;;;20.30;60.50;;;;;;1459099;80;755;-62
2023/01/28 08:30:05;;;;;;;;;;;20.30;61.30;;;;;;1476736;78;1599;-66
2023/01/28 08:32:07;;;;;;;;;;;20.30;61.10;;;;;;1454618;80;778;-63
2023/01/28 08:34:09;;;;;;;;;;;20.30;61.10;;;;;;1482502;78;771;-62
2023/01/28 08:36:11;;;;;;;;;;;20.40;61.20;;;;;;1488002;78;760;-62
2023/01/28 08:38:19;;;;;;;;;;;20.40;61.00;;;;;;1492912;78;1957;-62
2023/01/28 08:40:17;;;;;;;;;;;20.30;61.40;;;;;;1476304;78;1603;-63
2023/01/28 08:42:19;;;;;;;;;;;20.30;61.20;;;;;;1492308;79;686;-62
2023/01/28 08:44:20;;;;;;;;;;;20.30;61.40;;;;;;1480189;78;1312;-60
2023/01/28 08:46:22;;;;;;;;;;;20.40;60.20;;;;;;1452687;80;709;-61
2023/01/28 08:48:24;;;;;;;;;;;20.40;59.70;;;;;;1451998;79;731;-62
2023/01/28 08:50:27;;;;;;;;;;;20.40;59.90;;;;;;1461678;80;1141;-62
2023/01/28 08:52:29;;;;;;;;;;;20.50;60.00;;;;;;1443549;80;698;-63
2023/01/28 08:54:30;;;;;;;;;;;20.50;59.90;;;;;;1457093;79;640;-64
2023/01/28 08:56:32;;;;;;;;;;;20.40;59.70;;;;;;1456715;79;749;-64
2023/01/28 08:58:34;;;;;;;;;;;20.40;60.00;;;;;;1454104;80;1931;-63
2023/01/28 09:00:36;;;;;;;;;;;20.40;59.90;;;;;;1464444;80;1129;-63
2023/01/28 09:02:38;;;;;;;;;;;20.50;59.80;;;;;;1477463;79;753;-59
2023/01/28 09:04:41;;;;;;;;;;;20.50;59.50;;;;;;1492375;78;697;-59
2023/01/28 09:06:42;;;;;;;;;;;20.60;59.20;;;;;;1482628;79;712;-59
2023/01/28 09:08:44;;;;;;;;;;;20.60;59.00;;;;;;1496456;78;740;-60
2023/01/28 09:10:46;;;;;;;;;;;20.60;58.90;;;;;;1484849;78;1094;-59
2023/01/28 09:12:48;;;;;;;;;;;20.60;58.70;;;;;;1475573;78;1470;-62
2023/01/28 09:14:51;;;;;;;;;;;20.70;58.70;;;;;;1482454;78;769;-61
2023/01/28 09:16:53;;;;;;;;;;;20.70;58.40;;;;;;1476293;79;628;-60
2023/01/28 09:18:55;;;;;;;;;;;20.70;58.30;;;;;;1492425;78;1956;-60
2023/01/28 09:20:57;;;;;;;;;;;20.70;58.30;;;;;;1489101;78;1131;-60
2023/01/28 09:22:59;;;;;;;;;;;20.70;58.20;;;;;;1474368;78;677;-59
2023/01/28 09:25:01;;;;;;;;;;;20.60;58.10;;;;;;1477472;78;721;-57
2023/01/28 09:27:03;;;;;;;;;;;20.70;58.10;;;;;;1475617;78;1646;-59
2023/01/28 09:29:05;;;;;;;;;;;20.60;58.00;;;;;;1471756;78;1141;-57
2023/01/28 09:31:10;;;;;;;;;;;20.70;58.10;;;;;;1470841;78;713;-59
2023/01/28 09:33:12;;;;;;;;;;;20.70;58.10;;;;;;1480554;79;735;-57
2023/01/28 09:35:15;;;;;;;;;;;20.60;57.50;;;;;;1477337;78;695;-58
2023/01/28 09:37:17;;;;;;;;;;;20.70;58.10;;;;;;1478173;78;824;-57
2023/01/28 09:39:19;;;;;;;;;;;20.60;58.00;;;;;;1473234;79;1918;-59
2023/01/28 09:41:27;;;;;;;;;;;20.60;58.00;;;;;;1473773;78;1570;-58
2023/01/28 09:43:46;;;;;;;;;;;20.70;57.60;;;;;;1473907;78;752;-59
2023/01/28 09:45:48;;;;;;;;;;;20.70;58.10;;;;;;1477749;78;1718;-59
2023/01/28 09:47:57;;;;;;;;;;;20.60;58.00;;;;;;1477278;78;755;-59
2023/01/28 09:49:59;;;;;;;;;;;20.60;58.00;;;;;;1455932;80;1136;-58
2023/01/28 09:52:01;;;;;;;;;;;20.60;58.00;;;;;;1482751;78;689;-60
2023/01/28 09:54:04;;;;;;;;;;;20.60;58.00;;;;;;1477052;79;1587;-62
2023/01/28 09:56:08;;;;;;;;;;;20.60;58.00;;;;;;1472683;79;749;-62
2023/01/28 09:58:11;;;;;;;;;;;20.60;57.50;;;;;;1472559;78;713;-62
2023/01/28 10:00:14;;;;;;;;;;;20.60;57.50;;;;;;1484955;79;1926;-62
2023/01/28 10:02:17;;;;;;;;;;;20.60;57.50;;;;;;1474076;78;751;-61
2023/01/28 10:04:23;;;;;;;;;;;20.60;57.50;;;;;;1481527;78;1655;-60
2023/01/28 10:06:27;;;;;;;;;;;20.60;57.50;;;;;;1484941;78;1448;-62
2023/01/28 10:08:45;;;;;;;;;;;20.60;57.50;;;;;;1471414;78;1532;-60
2023/01/28 10:10:48;;;;;;;;;;;20.50;57.50;;;;;;1477998;78;1133;-61
2023/01/28 10:13:07;;;;;;;;;;;20.50;58.00;;;;;;1450151;80;630;-62
2023/01/28 10:15:20;;;;;;;;;;;20.60;58.00;;;;;;1472134;78;709;-60
2023/01/28 10:17:26;;;;;;;;;;;20.50;58.00;;;;;;1465887;78;1908;-62
2023/01/28 10:19:30;;;;;;;;;;;20.50;58.00;;;;;;1471304;78;1938;-63
2023/01/28 10:21:36;;;;;;;;;;;20.50;58.00;;;;;;1457807;80;692;-60
2023/01/28 10:23:46;;;;;;;;;;;20.50;58.00;;;;;;1467868;78;1329;-65
2023/01/28 10:25:48;;;;;;;;;;;20.50;58.00;;;;;;1446330;80;1881;-60
2023/01/28 10:27:50;;;;;;;;;;;20.50;57.50;;;;;;1448421;80;728;-60
2023/01/28 10:29:52;;;;;;;;;;;20.50;57.50;;;;;;1451355;80;1130;-60
2023/01/28 10:31:54;;;;;;;;;;;20.50;57.50;;;;;;1450509;80;768;-61
2023/01/28 10:33:56;;;;;;;;;;;20.50;57.50;;;;;;1445047;80;692;-60
2023/01/28 10:35:59;;;;;;;;;;;20.40;57.40;;;;;;1455076;80;1555;-62
2023/01/28 10:38:05;;;;;;;;;;;20.50;57.40;;;;;;1452197;80;772;-62
2023/01/28 10:40:06;;;;;;;;;;;20.50;57.50;;;;;;1445328;80;2007;-61
2023/01/28 10:42:18;;;;;;;;;;;20.50;57.50;;;;;;1457906;80;845;-61
2023/01/28 10:44:34;;;;;;;;;;;20.60;57.40;;;;;;1452972;80;735;-60
2023/01/28 10:46:37;;;;;;;;;;;20.50;57.40;;;;;;1450174;80;786;-62
2023/01/28 10:48:40;;;;;;;;;;;20.50;57.50;;;;;;1473998;78;704;-61
2023/01/28 10:50:44;;;;;;;;;;;20.50;57.50;;;;;;1465741;78;1575;-60
2023/01/28 10:53:05;;;;;;;;;;;20.50;57.50;;;;;;1464595;79;1875;-60
2023/01/28 10:55:08;;;;;;;;;;;20.50;57.50;;;;;;1478228;78;767;-62
2023/01/28 10:57:11;;;;;;;;;;;20.50;57.50;;;;;;1480441;78;1573;-60
2023/01/28 10:59:29;;;;;;;;;;;20.50;57.50;;;;;;1481486;79;1943;-60
2023/01/28 11:01:39;;;;;;;;;;;20.50;57.50;;;;;;1479061;78;772;-62
2023/01/28 11:03:40;;;;;;;;;;;20.50;57.50;;;;;;1489203;78;904;-61
2023/01/28 11:05:44;;;;;;;;;;;20.50;57.50;;;;;;1508543;77;1564;-62
2023/01/28 11:07:50;;;;;;;;;;;20.50;57.40;;;;;;1481297;78;1599;-60
2023/01/28 11:09:51;;;;;;;;;;;20.50;57.40;;;;;;1492000;78;1255;-61
2023/01/28 11:11:53;;;;;;;;;;;20.60;57.40;;;;;;1468058;78;679;-61
2023/01/28 11:13:57;;;;;;;;;;;20.50;57.40;;;;;;1486426;78;677;-60
2023/01/28 11:16:02;;;;;;;;;;;20.50;57.40;;;;;;1482921;78;756;-60
2023/01/28 11:18:09;;;;;;;;;;;20.60;57.30;;;;;;1452688;80;656;-61
2023/01/28 11:20:12;;;;;;;;;;;20.60;57.30;;;;;;1455262;80;2080;-60
2023/01/28 11:22:18;;;;;;;;;;;20.50;57.30;;;;;;1478297;80;667;-60
2023/01/28 11:24:25;;;;;;;;;;;20.50;57.30;;;;;;1485811;79;1952;-60
2023/01/28 11:26:28;;;;;;;;;;;20.50;57.30;;;;;;1493609;79;728;-60
2023/01/28 11:28:30;;;;;;;;;;;20.50;57.30;;;;;;1475949;78;1815;-60
2023/01/28 11:30:33;;;;;;;;;;;20.50;57.20;;;;;;1463660;80;1089;-60
2023/01/28 11:32:35;;;;;;;;;;;20.50;57.20;;;;;;1456908;80;1586;-61
2023/01/28 11:34:37;;;;;;;;;;;20.50;57.20;;;;;;1488467;78;725;-62
2023/01/28 11:36:38;;;;;;;;;;;20.50;57.20;;;;;;1472959;78;1083;-61
2023/01/28 11:38:53;;;;;;;;;;;20.50;57.10;;;;;;1487734;78;1127;-61
2023/01/28 11:40:56;;;;;;;;;;;20.50;57.10;;;;;;1498753;77;1121;-61
2023/01/28 11:42:59;;;;;;;;;;;20.50;57.10;;;;;;1519770;77;712;-61
2023/01/28 11:45:01;;;;;;;;;;;20.50;57.10;;;;;;1496940;77;958;-60
2023/01/28 11:47:10;;;;;;;;;;;20.50;57.10;;;;;;1503632;77;1586;-62
2023/01/28 11:49:16;;;;;;;;;;;20.50;57.10;;;;;;1489689;77;1165;-61
2023/01/28 11:51:20;;;;;;;;;;;20.50;57.10;;;;;;1506065;77;629;-61
2023/01/28 11:53:39;;;;;;;;;;;20.50;57.10;;;;;;1513595;77;1744;-62
2023/01/28 11:55:54;;;;;;;;;;;20.50;57.20;;;;;;1509313;77;782;-60
2023/01/28 11:58:04;;;;;;;;;;;20.40;57.10;;;;;;1516482;77;1710;-61
2023/01/28 12:00:10;;;;;;;;;;;20.40;57.10;;;;;;1508346;77;1940;-62
2023/01/28 12:02:20;;;;;;;;;;;20.50;57.20;;;;;;1506701;77;1555;-61
2023/01/28 12:04:35;;;;;;;;;;;20.40;57.10;;;;;;1503946;77;1876;-62
2023/01/28 12:06:58;;;;;;;;;;;20.40;57.10;;;;;;1496507;77;678;-62
2023/01/28 12:09:06;;;;;;;;;;;20.50;57.20;;;;;;1504036;77;869;-63
2023/01/28 12:11:18;;;;;;;;;;;20.50;57.20;;;;;;1497479;77;721;-61
2023/01/28 12:13:37;;;;;;;;;;;20.50;57.20;;;;;;1510316;77;669;-61
2023/01/28 12:16:00;;;;;;;;;;;20.50;57.20;;;;;;1513760;77;1337;-63
2023/01/28 12:18:21;;;;;;;;;;;20.50;57.10;;;;;;1517067;77;552;-61
2023/01/28 12:20:31;;;;;;;;;;;20.50;57.10;;;;;;1496739;77;1944;-61
2023/01/28 12:22:37;;;;;;;;;;;20.50;57.10;;;;;;1498479;77;1022;-62
2023/01/28 12:24:47;;;;;;;;;;;20.50;57.10;;;;;;1500373;77;1830;-61
2023/01/28 12:26:59;;;;;;;;;;;20.50;57.10;;;;;;1507742;77;826;-61
2023/01/28 12:29:09;;;;;;;;;;;20.50;57.10;;;;;;1545348;74;3020;-56
2023/01/28 12:31:15;;;;;;;;;;;20.50;57.00;;;;;;1523068;77;713;-57
2023/01/28 12:33:37;;;;;;;;;;;20.50;57.10;;;;;;1503951;77;995;-55
2023/01/28 12:35:52;;;;;;;;;;;20.40;56.90;;;;;;1481397;78;1055;-57
2023/01/28 12:37:59;;;;;;;;;;;20.40;56.90;;;;;;1484540;78;2017;-57
2023/01/28 12:40:18;;;;;;;;;;;20.50;57.10;;;;;;1445425;79;1924;-56
2023/01/28 12:42:21;;;;;;;;;;;20.50;57.00;;;;;;1502724;77;744;-58
2023/01/28 12:44:28;;;;;;;;;;;20.50;57.00;;;;;;1503529;77;1818;-57
2023/01/28 12:46:44;;;;;;;;;;;20.40;56.90;;;;;;1503253;77;653;-57
2023/01/28 12:48:47;;;;;;;;;;;20.50;57.00;;;;;;1502304;77;710;-55